SBPG/PNG METAR and TAF weather

Enter ICAO airport designator
Station Type Date Time Source
SBPG METAR 2022/12/05 14:00 UTC NOAA

SBPG 051400Z 30011KT 9999 OVC018 24/20 Q1014


Station Type Date Time Source
SBPG Decoded METAR 2022/12/05 14:00 UTC NOAA

Paranagua, Brazil (SBPG) 25-31S 048-31W
Dec 05, 2022 - 09:00 AM EST / 2022.12.05 1400 UTC
Wind: from the WNW (300 degrees) at 13 MPH (11 KT):0
Visibility: greater than 7 mile(s):0
Sky conditions: overcast
Temperature: 75 F (24 C)
Dew Point: 68 F (20 C)
Relative Humidity: 78%
Pressure (altimeter): 29.94 in. Hg (1014 hPa)
ob: SBPG 051400Z 30011KT 9999 OVC018 24/20 Q1014
cycle: 14

Station Type Date Time Source
SBPG TAF UTC NOAA

Error!

Example: see airport list